createdAt,value
2023-03-08T00:01:58.728Z,65.08
2023-03-08T00:06:58.658Z,65.16
2023-03-08T00:11:58.645Z,65.28
2023-03-08T00:16:58.561Z,65.32
2023-03-08T00:21:58.458Z,65.33
2023-03-08T00:26:58.417Z,65.35
2023-03-08T00:31:58.372Z,65.42
2023-03-08T00:36:58.271Z,65.44
2023-03-08T00:41:58.243Z,65.45
2023-03-08T00:46:58.276Z,65.46
2023-03-08T00:51:58.119Z,65.44
2023-03-08T00:56:58.052Z,65.48
2023-03-08T01:01:57.940Z,65.51
2023-03-08T01:07:23.928Z,65.37
2023-03-08T01:12:16.157Z,65.50
2023-03-08T01:17:16.124Z,65.65
2023-03-08T01:22:16.984Z,65.71
2023-03-08T01:27:15.998Z,65.73
2023-03-08T01:32:15.959Z,65.73
2023-03-08T01:37:15.881Z,65.74
2023-03-08T01:42:15.793Z,65.75
2023-03-08T01:47:15.700Z,65.78
2023-03-08T01:52:15.661Z,65.81
2023-03-08T01:57:15.622Z,65.83
2023-03-08T02:02:15.600Z,65.90
2023-03-08T02:07:15.458Z,65.98
2023-03-08T02:12:15.386Z,66.03
2023-03-08T02:17:15.368Z,66.08
2023-03-08T02:22:15.288Z,66.13
2023-03-08T02:27:15.269Z,66.16
2023-03-08T02:32:15.211Z,66.16
2023-03-08T02:37:15.088Z,66.18
2023-03-08T02:42:15.050Z,66.18
2023-03-08T02:47:14.952Z,66.17
2023-03-08T02:52:14.898Z,66.19
2023-03-08T02:57:14.895Z,66.23
2023-03-08T03:02:14.742Z,66.26
2023-03-08T03:07:14.713Z,66.28
2023-03-08T03:12:14.642Z,66.28
2023-03-08T03:17:14.549Z,66.30
2023-03-08T03:22:14.511Z,66.32
2023-03-08T03:27:14.446Z,66.34
2023-03-08T03:32:14.378Z,66.33
2023-03-08T03:37:14.310Z,66.34
2023-03-08T03:42:14.292Z,66.37
2023-03-08T03:47:14.187Z,66.39
2023-03-08T03:52:14.126Z,66.41
2023-03-08T03:57:14.034Z,66.42
2023-03-08T04:02:13.988Z,66.44
2023-03-08T04:07:13.947Z,66.47
2023-03-08T04:12:14.849Z,66.53
2023-03-08T04:17:13.766Z,66.66
2023-03-08T04:22:13.747Z,66.78
2023-03-08T04:27:13.653Z,66.86
2023-03-08T04:32:13.643Z,67.03
2023-03-08T04:37:13.513Z,67.05
2023-03-08T04:42:13.473Z,67.06
2023-03-08T04:47:13.420Z,67.07
2023-03-08T04:52:13.341Z,67.09
2023-03-08T04:57:13.273Z,67.06
2023-03-08T05:02:13.302Z,67.07
2023-03-08T05:07:13.139Z,67.04
2023-03-08T05:12:13.877Z,67.07
2023-03-08T05:17:24.204Z,66.95
2023-03-08T05:22:16.548Z,67.10
2023-03-08T05:27:16.517Z,67.29
2023-03-08T05:32:16.558Z,67.50
2023-03-08T05:37:16.417Z,67.57
2023-03-08T05:42:16.319Z,67.66
2023-03-08T05:47:16.253Z,67.79
2023-03-08T05:52:16.172Z,67.84
2023-03-08T05:57:16.110Z,67.89
2023-03-08T06:02:16.097Z,67.96
2023-03-08T06:07:16.092Z,68.04
2023-03-08T06:12:15.900Z,68.14
2023-03-08T06:17:15.880Z,68.14
2023-03-08T06:22:15.782Z,68.17
2023-03-08T06:27:15.716Z,68.13
2023-03-08T06:32:15.678Z,68.15
2023-03-08T06:37:15.626Z,68.13
2023-03-08T06:42:15.571Z,68.20
2023-03-08T06:47:15.480Z,68.21
2023-03-08T06:52:15.393Z,68.26
2023-03-08T06:57:16.664Z,68.37
2023-03-08T07:02:15.273Z,68.35
2023-03-08T07:07:15.306Z,68.44
2023-03-08T07:12:15.156Z,68.48
2023-03-08T07:17:15.085Z,68.68
2023-03-08T07:22:15.007Z,68.73
2023-03-08T07:27:14.971Z,68.92
2023-03-08T07:32:14.947Z,69.06
2023-03-08T07:37:14.849Z,69.04
2023-03-08T07:42:14.758Z,69.05
2023-03-08T07:47:14.736Z,69.10
2023-03-08T07:52:14.631Z,69.15
2023-03-08T07:57:14.574Z,69.15
2023-03-08T08:02:14.510Z,69.08
2023-03-08T08:07:14.439Z,68.97
2023-03-08T08:12:14.380Z,69.09
2023-03-08T08:17:14.297Z,69.25
2023-03-08T08:22:14.236Z,69.30
2023-03-08T08:27:15.256Z,69.45
2023-03-08T08:32:14.200Z,69.42
2023-03-08T08:37:14.063Z,69.25
2023-03-08T08:42:13.986Z,69.20
2023-03-08T08:47:13.941Z,69.02
2023-03-08T08:52:13.887Z,68.69
2023-03-08T08:57:13.808Z,68.58
2023-03-08T09:02:13.794Z,68.70
2023-03-08T09:07:13.668Z,68.55
2023-03-08T09:12:13.605Z,68.52
2023-03-08T09:17:13.538Z,68.34
2023-03-08T09:22:13.487Z,68.39
2023-03-08T09:27:13.427Z,68.25
2023-03-08T09:32:13.430Z,67.89
2023-03-08T09:37:13.285Z,67.55
2023-03-08T09:42:13.255Z,67.32
2023-03-08T09:47:13.168Z,67.24
2023-03-08T09:52:13.104Z,67.31
2023-03-08T09:57:13.079Z,67.50
2023-03-08T10:02:12.961Z,67.73
2023-03-08T10:07:12.915Z,68.07
2023-03-08T10:12:13.538Z,68.28
2023-03-08T10:17:12.791Z,68.52
2023-03-08T10:22:12.695Z,68.51
2023-03-08T10:27:12.686Z,68.09
2023-03-08T10:32:12.588Z,67.90
2023-03-08T10:37:12.544Z,67.88
2023-03-08T10:42:12.428Z,67.57
2023-03-08T10:47:12.411Z,67.48
2023-03-08T10:52:12.307Z,67.67
2023-03-08T10:57:12.256Z,67.43
2023-03-08T11:02:12.173Z,67.54
2023-03-08T11:07:12.133Z,67.76
2023-03-08T11:12:12.716Z,67.64
2023-03-08T11:17:12.009Z,67.24
2023-03-08T11:22:11.948Z,66.91
2023-03-08T11:27:11.970Z,66.53
2023-03-08T11:32:11.805Z,66.22
2023-03-08T11:37:11.768Z,66.32
2023-03-08T11:42:12.566Z,66.56
2023-03-08T11:47:11.615Z,66.26
2023-03-08T11:52:11.534Z,66.06
2023-03-08T11:57:11.506Z,66.34
2023-03-08T12:02:11.413Z,66.68
2023-03-08T12:07:11.475Z,66.79
2023-03-08T12:12:11.288Z,66.70
2023-03-08T12:17:11.419Z,66.86
2023-03-08T12:22:12.122Z,66.26
2023-03-08T12:27:11.113Z,66.18
2023-03-08T12:32:11.241Z,66.49
2023-03-08T12:37:11.017Z,66.85
2023-03-08T12:42:10.902Z,66.77
2023-03-08T12:47:10.857Z,66.78
2023-03-08T12:52:10.780Z,67.40
2023-03-08T12:57:10.717Z,67.69
2023-03-08T13:02:10.666Z,68.00
2023-03-08T13:07:10.597Z,68.01
2023-03-08T13:12:10.551Z,67.81
2023-03-08T13:17:10.449Z,67.65
2023-03-08T13:22:11.436Z,67.34
2023-03-08T13:27:10.329Z,66.93
2023-03-08T13:32:10.313Z,66.76
2023-03-08T13:37:10.202Z,66.78
2023-03-08T13:42:10.212Z,66.43
2023-03-08T13:47:10.080Z,65.88
2023-03-08T13:52:10.041Z,66.15
2023-03-08T13:57:09.953Z,66.82
2023-03-08T14:02:09.908Z,67.78
2023-03-08T14:07:09.813Z,68.23
2023-03-08T14:12:09.840Z,68.25
2023-03-08T14:17:09.663Z,68.31
2023-03-08T14:22:10.592Z,68.53
2023-03-08T14:27:09.563Z,68.76
2023-03-08T14:32:09.575Z,68.72
2023-03-08T14:37:09.406Z,68.75
2023-03-08T14:42:09.380Z,68.83
2023-03-08T14:47:09.280Z,68.89
2023-03-08T14:52:09.535Z,68.97
2023-03-08T14:57:09.151Z,68.96
2023-03-08T15:02:09.131Z,68.97
2023-03-08T15:07:09.032Z,69.09
2023-03-08T15:12:08.939Z,68.98
2023-03-08T15:17:08.911Z,68.97
2023-03-08T15:22:08.818Z,68.92
2023-03-08T15:27:08.741Z,69.06
2023-03-08T15:32:08.766Z,69.11
2023-03-08T15:37:08.625Z,69.15
2023-03-08T15:42:08.558Z,69.23
2023-03-08T15:47:08.488Z,69.26
2023-03-08T15:52:08.878Z,69.31
2023-03-08T15:57:08.364Z,69.33
2023-03-08T16:02:08.350Z,69.37
2023-03-08T16:07:08.232Z,69.38
2023-03-08T16:12:08.157Z,69.41
2023-03-08T16:17:08.112Z,69.49
2023-03-08T16:22:08.451Z,69.55
2023-03-08T16:27:08.031Z,69.57
2023-03-08T16:32:08.038Z,69.64
2023-03-08T16:37:07.844Z,69.68
2023-03-08T16:42:07.766Z,69.75
2023-03-08T16:47:07.701Z,69.79
2023-03-08T16:52:07.634Z,69.84
2023-03-08T16:57:18.751Z,69.85
2023-03-08T17:02:08.497Z,69.86
2023-03-08T17:07:07.430Z,69.92
2023-03-08T17:12:07.374Z,69.98
2023-03-08T17:17:08.253Z,70.01
2023-03-08T17:22:07.201Z,70.05
2023-03-08T17:27:07.164Z,70.05
2023-03-08T17:32:07.535Z,70.09
2023-03-08T17:37:07.020Z,70.11
2023-03-08T17:42:06.953Z,70.15
2023-03-08T17:47:06.896Z,70.18
2023-03-08T17:52:06.842Z,70.22
2023-03-08T17:57:06.762Z,70.21
2023-03-08T18:02:06.727Z,70.24
2023-03-08T18:07:06.637Z,70.29
2023-03-08T18:12:06.552Z,70.29
2023-03-08T18:17:06.508Z,70.32
2023-03-08T18:22:06.441Z,70.34
2023-03-08T18:27:06.382Z,70.40
2023-03-08T18:32:06.322Z,70.47
2023-03-08T18:37:06.226Z,70.48
2023-03-08T18:42:06.200Z,70.46
2023-03-08T18:47:06.117Z,70.49
2023-03-08T18:52:06.055Z,70.49
2023-03-08T18:57:05.963Z,70.51
2023-03-08T19:02:05.933Z,70.50
2023-03-08T19:07:05.879Z,70.51
2023-03-08T19:12:05.770Z,70.52
2023-03-08T19:17:06.538Z,70.54
2023-03-08T19:22:05.669Z,70.53
2023-03-08T19:27:05.613Z,70.57
2023-03-08T19:32:05.553Z,70.62
2023-03-08T19:37:05.460Z,70.62
2023-03-08T19:42:05.406Z,70.65
2023-03-08T19:47:05.315Z,70.69
2023-03-08T19:52:05.289Z,70.70
2023-03-08T19:57:05.229Z,70.71
2023-03-08T20:02:05.155Z,70.68
2023-03-08T20:07:05.158Z,70.71
2023-03-08T20:12:05.014Z,70.73
2023-03-08T20:17:04.992Z,70.75
2023-03-08T20:22:04.854Z,70.79
2023-03-08T20:27:04.830Z,70.82
2023-03-08T20:32:04.735Z,70.82
2023-03-08T20:37:04.992Z,70.86
2023-03-08T20:42:04.598Z,70.89
2023-03-08T20:47:04.546Z,70.87
2023-03-08T20:52:04.459Z,70.87
2023-03-08T20:57:04.364Z,70.88
2023-03-08T21:02:04.320Z,70.92
2023-03-08T21:07:04.257Z,70.93
2023-03-08T21:12:04.194Z,70.92
2023-03-08T21:17:04.145Z,70.96
2023-03-08T21:22:04.043Z,71.01
2023-03-08T21:27:04.013Z,71.05
2023-03-08T21:32:03.954Z,71.03
2023-03-08T21:37:03.878Z,71.00
2023-03-08T21:42:03.785Z,71.00
2023-03-08T21:47:03.734Z,71.00
2023-03-08T21:52:03.681Z,71.02
2023-03-08T21:57:03.627Z,71.05
2023-03-08T22:02:03.653Z,71.08
2023-03-08T22:07:03.476Z,71.08
2023-03-08T22:12:03.380Z,71.08
2023-03-08T22:17:03.339Z,71.08
2023-03-08T22:22:03.259Z,71.09
2023-03-08T22:27:03.210Z,71.13
2023-03-08T22:32:03.147Z,71.16
2023-03-08T22:37:03.079Z,71.15
2023-03-08T22:42:03.031Z,71.18
2023-03-08T22:47:02.980Z,71.23
2023-03-08T22:52:02.871Z,71.24
2023-03-08T22:57:02.837Z,71.25
2023-03-08T23:02:02.748Z,71.27
2023-03-08T23:07:02.677Z,71.30
2023-03-08T23:12:02.614Z,71.44
2023-03-08T23:17:02.583Z,71.48
2023-03-08T23:22:02.491Z,71.50
2023-03-08T23:27:02.444Z,71.52
2023-03-08T23:32:02.369Z,71.55
2023-03-08T23:37:02.306Z,71.56
2023-03-08T23:42:02.228Z,71.57
2023-03-08T23:47:02.165Z,71.54
2023-03-08T23:52:02.088Z,71.53
2023-03-08T23:57:02.027Z,71.55
